sensor_id;sensor_type;location;lat;lon;timestamp;pressure;altitude;pressure_sealevel;temperature;humidity
48424;BME280;34232;42.502;26.014;2022-11-20T00:00:29;99719.03;;;15.50;95.43
48424;BME280;34232;42.502;26.014;2022-11-20T00:02:54;99721.03;;;15.48;95.43
48424;BME280;34232;42.502;26.014;2022-11-20T00:05:19;99716.41;;;15.42;96.01
48424;BME280;34232;42.502;26.014;2022-11-20T00:07:46;99720.38;;;15.37;96.63
48424;BME280;34232;42.502;26.014;2022-11-20T00:10:12;99712.06;;;15.32;98.16
48424;BME280;34232;42.502;26.014;2022-11-20T00:12:37;99704.44;;;15.29;97.52
48424;BME280;34232;42.502;26.014;2022-11-20T00:15:03;99708.91;;;15.13;100.00
48424;BME280;34232;42.502;26.014;2022-11-20T00:17:29;99699.81;;;15.15;100.00
48424;BME280;34232;42.502;26.014;2022-11-20T00:19:55;99697.50;;;15.20;100.00
48424;BME280;34232;42.502;26.014;2022-11-20T00:22:29;99691.84;;;15.15;100.00
48424;BME280;34232;42.502;26.014;2022-11-20T00:24:54;99696.50;;;15.21;100.00
48424;BME280;34232;42.502;26.014;2022-11-20T00:27:19;99709.09;;;15.19;100.00
48424;BME280;34232;42.502;26.014;2022-11-20T00:29:45;99688.88;;;15.18;100.00
48424;BME280;34232;42.502;26.014;2022-11-20T00:32:10;99699.16;;;15.21;99.97
48424;BME280;34232;42.502;26.014;2022-11-20T00:34:36;99706.13;;;15.22;100.00
48424;BME280;34232;42.502;26.014;2022-11-20T00:37:01;99700.13;;;15.28;100.00
48424;BME280;34232;42.502;26.014;2022-11-20T00:39:26;99702.31;;;15.33;100.00
48424;BME280;34232;42.502;26.014;2022-11-20T00:41:52;99709.44;;;15.40;100.00
48424;BME280;34232;42.502;26.014;2022-11-20T00:44:17;99688.38;;;15.39;100.00
48424;BME280;34232;42.502;26.014;2022-11-20T00:46:42;99697.00;;;15.49;99.63
48424;BME280;34232;42.502;26.014;2022-11-20T00:49:08;99697.16;;;15.48;100.00
48424;BME280;34232;42.502;26.014;2022-11-20T00:51:33;99698.66;;;15.50;99.73
48424;BME280;34232;42.502;26.014;2022-11-20T00:53:59;99700.97;;;15.53;99.59
48424;BME280;34232;42.502;26.014;2022-11-20T00:56:25;99697.50;;;15.53;99.30
48424;BME280;34232;42.502;26.014;2022-11-20T00:58:50;99693.03;;;15.53;98.69
48424;BME280;34232;42.502;26.014;2022-11-20T01:01:22;99694.84;;;15.53;97.17
48424;BME280;34232;42.502;26.014;2022-11-20T01:03:53;99686.72;;;15.46;98.81
48424;BME280;34232;42.502;26.014;2022-11-20T01:08:47;99674.44;;;15.45;100.00
48424;BME280;34232;42.502;26.014;2022-11-20T01:11:22;99678.25;;;15.51;100.00
48424;BME280;34232;42.502;26.014;2022-11-20T01:13:49;99675.63;;;15.59;100.00
48424;BME280;34232;42.502;26.014;2022-11-20T01:16:21;99652.06;;;15.64;100.00
48424;BME280;34232;42.502;26.014;2022-11-20T01:18:50;99636.41;;;15.93;100.00
48424;BME280;34232;42.502;26.014;2022-11-20T01:21:23;99645.19;;;16.02;100.00
48424;BME280;34232;42.502;26.014;2022-11-20T01:23:50;99646.78;;;16.19;100.00
48424;BME280;34232;42.502;26.014;2022-11-20T01:26:26;99651.19;;;16.35;100.00
48424;BME280;34232;42.502;26.014;2022-11-20T01:28:53;99632.88;;;16.40;100.00
48424;BME280;34232;42.502;26.014;2022-11-20T01:31:24;99649.78;;;16.47;98.67
48424;BME280;34232;42.502;26.014;2022-11-20T01:33:52;99644.13;;;16.50;98.43
48424;BME280;34232;42.502;26.014;2022-11-20T01:36:19;99640.47;;;16.51;98.50
48424;BME280;34232;42.502;26.014;2022-11-20T01:38:46;99630.03;;;16.50;99.72
48424;BME280;34232;42.502;26.014;2022-11-20T01:41:13;99624.00;;;16.56;100.00
48424;BME280;34232;42.502;26.014;2022-11-20T01:43:59;99615.84;;;16.57;99.75
48424;BME280;34232;42.502;26.014;2022-11-20T01:46:24;99618.97;;;16.61;99.67
48424;BME280;34232;42.502;26.014;2022-11-20T01:49:01;99623.13;;;16.71;98.85
48424;BME280;34232;42.502;26.014;2022-11-20T01:51:39;99617.59;;;16.73;97.98
48424;BME280;34232;42.502;26.014;2022-11-20T01:54:11;99619.91;;;16.76;97.90
48424;BME280;34232;42.502;26.014;2022-11-20T01:56:41;99620.09;;;16.74;97.45
48424;BME280;34232;42.502;26.014;2022-11-20T01:59:10;99617.81;;;16.71;97.13
48424;BME280;34232;42.502;26.014;2022-11-20T02:01:38;99606.13;;;16.72;97.05
48424;BME280;34232;42.502;26.014;2022-11-20T02:04:05;99607.78;;;16.73;97.70
48424;BME280;34232;42.502;26.014;2022-11-20T02:06:43;99620.09;;;16.74;98.59
48424;BME280;34232;42.502;26.014;2022-11-20T02:09:09;99616.41;;;16.75;99.21
48424;BME280;34232;42.502;26.014;2022-11-20T02:11:35;99626.72;;;16.78;100.00
48424;BME280;34232;42.502;26.014;2022-11-20T02:14:00;99623.34;;;16.85;100.00
48424;BME280;34232;42.502;26.014;2022-11-20T02:16:29;99618.69;;;16.87;98.82
48424;BME280;34232;42.502;26.014;2022-11-20T02:18:58;99617.38;;;16.83;99.42
48424;BME280;34232;42.502;26.014;2022-11-20T02:21:54;99613.38;;;16.87;99.89
48424;BME280;34232;42.502;26.014;2022-11-20T02:24:21;99609.72;;;16.88;99.32
48424;BME280;34232;42.502;26.014;2022-11-20T02:26:53;99610.34;;;16.90;99.56
48424;BME280;34232;42.502;26.014;2022-11-20T02:29:53;99604.75;;;16.85;99.56
48424;BME280;34232;42.502;26.014;2022-11-20T02:32:26;99601.44;;;16.83;98.78
48424;BME280;34232;42.502;26.014;2022-11-20T02:34:52;99598.13;;;16.81;98.97
48424;BME280;34232;42.502;26.014;2022-11-20T02:37:19;99585.19;;;16.77;100.00
48424;BME280;34232;42.502;26.014;2022-11-20T02:39:47;99600.78;;;16.81;100.00
48424;BME280;34232;42.502;26.014;2022-11-20T02:42:14;99577.91;;;16.94;100.00
48424;BME280;34232;42.502;26.014;2022-11-20T02:44:40;99584.00;;;17.03;100.00
48424;BME280;34232;42.502;26.014;2022-11-20T02:47:05;99583.91;;;17.11;100.00
48424;BME280;34232;42.502;26.014;2022-11-20T02:49:31;99591.44;;;17.22;99.18
48424;BME280;34232;42.502;26.014;2022-11-20T02:51:56;99592.38;;;17.29;98.49
48424;BME280;34232;42.502;26.014;2022-11-20T02:54:22;99584.31;;;17.37;97.74
48424;BME280;34232;42.502;26.014;2022-11-20T02:56:47;99584.31;;;17.37;97.49
48424;BME280;34232;42.502;26.014;2022-11-20T02:59:13;99585.25;;;17.44;97.31
48424;BME280;34232;42.502;26.014;2022-11-20T03:01:38;99579.56;;;17.47;96.62
48424;BME280;34232;42.502;26.014;2022-11-20T03:04:04;99583.25;;;17.46;95.98
48424;BME280;34232;42.502;26.014;2022-11-20T03:06:29;99603.91;;;17.59;95.68
48424;BME280;34232;42.502;26.014;2022-11-20T03:08:54;99596.22;;;17.64;95.01
48424;BME280;34232;42.502;26.014;2022-11-20T03:11:20;99596.69;;;17.68;94.90
48424;BME280;34232;42.502;26.014;2022-11-20T03:13:45;99604.22;;;17.79;93.97
48424;BME280;34232;42.502;26.014;2022-11-20T03:16:17;99597.53;;;17.83;93.56
48424;BME280;34232;42.502;26.014;2022-11-20T03:18:43;99594.47;;;17.86;93.00
48424;BME280;34232;42.502;26.014;2022-11-20T03:21:10;99602.19;;;17.81;93.30
48424;BME280;34232;42.502;26.014;2022-11-20T03:23:36;99601.00;;;17.83;93.17
48424;BME280;34232;42.502;26.014;2022-11-20T03:26:14;99587.13;;;17.73;93.46
48424;BME280;34232;42.502;26.014;2022-11-20T03:28:41;99597.06;;;17.79;93.61
48424;BME280;34232;42.502;26.014;2022-11-20T03:31:13;99603.03;;;17.81;93.28
48424;BME280;34232;42.502;26.014;2022-11-20T03:33:40;99599.78;;;17.86;92.71
48424;BME280;34232;42.502;26.014;2022-11-20T03:36:08;99615.88;;;17.93;91.95
48424;BME280;34232;42.502;26.014;2022-11-20T03:38:35;99600.72;;;17.93;92.35
48424;BME280;34232;42.502;26.014;2022-11-20T03:41:09;99602.72;;;17.91;91.43
48424;BME280;34232;42.502;26.014;2022-11-20T03:43:35;99604.22;;;17.94;90.98
48424;BME280;34232;42.502;26.014;2022-11-20T03:46:01;99599.00;;;17.86;90.74
48424;BME280;34232;42.502;26.014;2022-11-20T03:48:26;99600.53;;;17.80;91.08
48424;BME280;34232;42.502;26.014;2022-11-20T03:50:53;99604.94;;;17.73;91.26
48424;BME280;34232;42.502;26.014;2022-11-20T03:53:31;99613.22;;;17.78;91.67
48424;BME280;34232;42.502;26.014;2022-11-20T03:55:56;99612.28;;;17.71;91.26
48424;BME280;34232;42.502;26.014;2022-11-20T03:58:21;99610.63;;;17.70;91.46
48424;BME280;34232;42.502;26.014;2022-11-20T04:00:47;99604.22;;;17.64;90.55
48424;BME280;34232;42.502;26.014;2022-11-20T04:03:12;99598.94;;;17.56;91.34
48424;BME280;34232;42.502;26.014;2022-11-20T04:05:38;99614.47;;;17.53;92.00
48424;BME280;34232;42.502;26.014;2022-11-20T04:08:03;99605.19;;;17.48;91.73
48424;BME280;34232;42.502;26.014;2022-11-20T04:10:29;99617.66;;;17.48;92.21
48424;BME280;34232;42.502;26.014;2022-11-20T04:12:54;99607.38;;;17.45;92.58
48424;BME280;34232;42.502;26.014;2022-11-20T04:15:19;99600.75;;;17.41;92.27
48424;BME280;34232;42.502;26.014;2022-11-20T04:17:45;99601.22;;;17.44;93.09
48424;BME280;34232;42.502;26.014;2022-11-20T04:20:10;99606.69;;;17.28;92.73
48424;BME280;34232;42.502;26.014;2022-11-20T04:22:36;99603.56;;;17.25;94.65
48424;BME280;34232;42.502;26.014;2022-11-20T04:25:01;99601.38;;;17.28;94.62
48424;BME280;34232;42.502;26.014;2022-11-20T04:27:26;99600.84;;;17.33;94.12
48424;BME280;34232;42.502;26.014;2022-11-20T04:29:52;99591.09;;;17.25;94.64
48424;BME280;34232;42.502;26.014;2022-11-20T04:32:17;99580.09;;;17.28;94.87
48424;BME280;34232;42.502;26.014;2022-11-20T04:34:43;99592.59;;;17.42;93.88
48424;BME280;34232;42.502;26.014;2022-11-20T04:37:08;99594.25;;;17.43;93.60
48424;BME280;34232;42.502;26.014;2022-11-20T04:39:33;99595.19;;;17.51;93.13
48424;BME280;34232;42.502;26.014;2022-11-20T04:42:01;99602.41;;;17.57;92.84
48424;BME280;34232;42.502;26.014;2022-11-20T04:44:45;99608.38;;;17.59;92.10
48424;BME280;34232;42.502;26.014;2022-11-20T04:47:13;99612.34;;;17.63;91.85
48424;BME280;34232;42.502;26.014;2022-11-20T04:49:38;99621.16;;;17.63;91.69
48424;BME280;34232;42.502;26.014;2022-11-20T04:52:04;99617.84;;;17.61;91.76
48424;BME280;34232;42.502;26.014;2022-11-20T04:54:29;99632.34;;;17.59;91.40
48424;BME280;34232;42.502;26.014;2022-11-20T04:56:54;99612.41;;;17.55;91.75
48424;BME280;34232;42.502;26.014;2022-11-20T04:59:20;99613.63;;;17.52;92.14
48424;BME280;34232;42.502;26.014;2022-11-20T05:01:45;99606.19;;;17.47;92.17
48424;BME280;34232;42.502;26.014;2022-11-20T05:04:11;99608.66;;;17.49;92.16
48424;BME280;34232;42.502;26.014;2022-11-20T05:06:36;99603.69;;;17.46;92.77
48424;BME280;34232;42.502;26.014;2022-11-20T05:09:01;99606.53;;;17.44;92.76
48424;BME280;34232;42.502;26.014;2022-11-20T05:11:27;99599.22;;;17.46;92.73
48424;BME280;34232;42.502;26.014;2022-11-20T05:13:54;99600.03;;;17.47;92.75
48424;BME280;34232;42.502;26.014;2022-11-20T05:16:24;99590.50;;;17.53;92.34
48424;BME280;34232;42.502;26.014;2022-11-20T05:18:51;99592.59;;;17.57;91.82
48424;BME280;34232;42.502;26.014;2022-11-20T05:21:17;99597.38;;;17.62;91.72
48424;BME280;34232;42.502;26.014;2022-11-20T05:23:44;99597.69;;;17.67;91.26
48424;BME280;34232;42.502;26.014;2022-11-20T05:26:17;99610.63;;;17.70;90.99
48424;BME280;34232;42.502;26.014;2022-11-20T05:28:43;99608.03;;;17.62;91.17
48424;BME280;34232;42.502;26.014;2022-11-20T05:31:13;99609.00;;;17.69;90.70
48424;BME280;34232;42.502;26.014;2022-11-20T05:33:40;99620.19;;;17.79;90.48
48424;BME280;34232;42.502;26.014;2022-11-20T05:36:08;99621.66;;;17.81;89.86
48424;BME280;34232;42.502;26.014;2022-11-20T05:38:34;99629.47;;;17.83;89.57
48424;BME280;34232;42.502;26.014;2022-11-20T05:41:07;99641.31;;;17.95;89.29
48424;BME280;34232;42.502;26.014;2022-11-20T05:43:34;99634.63;;;17.99;88.93
48424;BME280;34232;42.502;26.014;2022-11-20T05:46:00;99630.19;;;18.06;88.40
48424;BME280;34232;42.502;26.014;2022-11-20T05:48:26;99637.09;;;18.15;88.05
48424;BME280;34232;42.502;26.014;2022-11-20T05:50:51;99655.63;;;18.24;87.18
48424;BME280;34232;42.502;26.014;2022-11-20T05:53:17;99655.91;;;18.29;86.51
48424;BME280;34232;42.502;26.014;2022-11-20T05:55:42;99651.22;;;18.31;86.15
48424;BME280;34232;42.502;26.014;2022-11-20T05:58:07;99656.91;;;18.28;86.09
48424;BME280;34232;42.502;26.014;2022-11-20T06:00:33;99664.25;;;18.26;86.05
48424;BME280;34232;42.502;26.014;2022-11-20T06:02:58;99658.41;;;18.15;86.47
48424;BME280;34232;42.502;26.014;2022-11-20T06:05:33;99647.94;;;17.99;87.36
48424;BME280;34232;42.502;26.014;2022-11-20T06:08:00;99657.00;;;17.90;88.20
48424;BME280;34232;42.502;26.014;2022-11-20T06:10:25;99660.84;;;17.88;88.71
48424;BME280;34232;42.502;26.014;2022-11-20T06:12:51;99662.69;;;17.87;89.29
48424;BME280;34232;42.502;26.014;2022-11-20T06:15:16;99657.38;;;17.87;89.74
48424;BME280;34232;42.502;26.014;2022-11-20T06:17:42;99662.63;;;17.95;89.27
48424;BME280;34232;42.502;26.014;2022-11-20T06:20:07;99639.94;;;17.85;88.95
48424;BME280;34232;42.502;26.014;2022-11-20T06:22:33;99662.53;;;18.03;88.50
48424;BME280;34232;42.502;26.014;2022-11-20T06:24:58;99661.50;;;18.04;88.51
48424;BME280;34232;42.502;26.014;2022-11-20T06:27:24;99662.44;;;18.11;88.28
48424;BME280;34232;42.502;26.014;2022-11-20T06:29:49;99659.13;;;18.09;88.19
48424;BME280;34232;42.502;26.014;2022-11-20T06:32:14;99647.81;;;18.07;87.84
48424;BME280;34232;42.502;26.014;2022-11-20T06:34:40;99661.91;;;18.01;88.19
48424;BME280;34232;42.502;26.014;2022-11-20T06:37:05;99662.91;;;18.00;88.45
48424;BME280;34232;42.502;26.014;2022-11-20T06:39:33;99673.16;;;18.03;88.62
48424;BME280;34232;42.502;26.014;2022-11-20T06:41:59;99689.44;;;18.08;88.28
48424;BME280;34232;42.502;26.014;2022-11-20T06:44:24;99690.72;;;18.12;88.25
48424;BME280;34232;42.502;26.014;2022-11-20T06:46:49;99682.56;;;18.14;88.21
48424;BME280;34232;42.502;26.014;2022-11-20T06:49:15;99695.69;;;18.15;88.02
48424;BME280;34232;42.502;26.014;2022-11-20T06:51:40;99683.84;;;18.18;87.75
48424;BME280;34232;42.502;26.014;2022-11-20T06:54:06;99692.47;;;18.20;87.68
48424;BME280;34232;42.502;26.014;2022-11-20T06:56:31;99692.94;;;18.24;87.73
48424;BME280;34232;42.502;26.014;2022-11-20T06:58:56;99710.75;;;18.08;88.52
48424;BME280;34232;42.502;26.014;2022-11-20T07:01:22;99706.34;;;18.15;88.33
48424;BME280;34232;42.502;26.014;2022-11-20T07:03:49;99708.91;;;18.24;88.16
48424;BME280;34232;42.502;26.014;2022-11-20T07:06:16;99700.28;;;18.22;88.23
48424;BME280;34232;42.502;26.014;2022-11-20T07:08:41;99704.78;;;18.36;87.90
48424;BME280;34232;42.502;26.014;2022-11-20T07:11:07;99705.06;;;18.41;87.68
48424;BME280;34232;42.502;26.014;2022-11-20T07:13:33;99704.03;;;18.42;87.32
48424;BME280;34232;42.502;26.014;2022-11-20T07:16:04;99695.97;;;18.50;87.10
48424;BME280;34232;42.502;26.014;2022-11-20T07:18:30;99691.06;;;18.53;86.95
48424;BME280;34232;42.502;26.014;2022-11-20T07:21:00;99697.16;;;18.62;87.02
48424;BME280;34232;42.502;26.014;2022-11-20T07:23:26;99708.91;;;18.68;86.45
48424;BME280;34232;42.502;26.014;2022-11-20T07:25:51;99706.22;;;18.68;86.18
48424;BME280;34232;42.502;26.014;2022-11-20T07:28:16;99703.47;;;18.76;86.31
48424;BME280;34232;42.502;26.014;2022-11-20T07:30:42;99712.56;;;18.81;85.88
48424;BME280;34232;42.502;26.014;2022-11-20T07:33:07;99709.50;;;18.84;85.79
48424;BME280;34232;42.502;26.014;2022-11-20T07:35:32;99714.94;;;18.91;84.99
48424;BME280;34232;42.502;26.014;2022-11-20T07:37:58;99709.28;;;19.01;84.98
48424;BME280;34232;42.502;26.014;2022-11-20T07:40:23;99698.22;;;19.04;84.74
48424;BME280;34232;42.502;26.014;2022-11-20T07:42:53;99710.44;;;19.13;84.98
48424;BME280;34232;42.502;26.014;2022-11-20T07:45:19;99707.59;;;19.14;84.85
48424;BME280;34232;42.502;26.014;2022-11-20T07:47:45;99700.16;;;19.10;85.05
48424;BME280;34232;42.502;26.014;2022-11-20T07:50:11;99693.03;;;18.96;84.52
48424;BME280;34232;42.502;26.014;2022-11-20T07:52:36;99693.16;;;19.09;86.00
48424;BME280;34232;42.502;26.014;2022-11-20T07:55:02;99697.09;;;19.13;85.35
48424;BME280;34232;42.502;26.014;2022-11-20T07:57:27;99685.41;;;19.14;85.67
48424;BME280;34232;42.502;26.014;2022-11-20T07:59:53;99689.09;;;19.13;86.71
48424;BME280;34232;42.502;26.014;2022-11-20T08:02:18;99693.53;;;19.06;85.33
48424;BME280;34232;42.502;26.014;2022-11-20T08:04:43;99696.09;;;19.14;84.46
48424;BME280;34232;42.502;26.014;2022-11-20T08:07:09;99694.94;;;19.23;84.89
48424;BME280;34232;42.502;26.014;2022-11-20T08:09:34;99687.56;;;19.25;85.97
48424;BME280;34232;42.502;26.014;2022-11-20T08:12:00;99698.31;;;19.32;85.40
48424;BME280;34232;42.502;26.014;2022-11-20T08:14:44;99695.44;;;19.33;84.08
48424;BME280;34232;42.502;26.014;2022-11-20T08:17:12;99689.72;;;19.36;83.86
48424;BME280;34232;42.502;26.014;2022-11-20T08:19:37;99698.31;;;19.32;83.58
48424;BME280;34232;42.502;26.014;2022-11-20T08:22:03;99688.06;;;19.35;83.26
48424;BME280;34232;42.502;26.014;2022-11-20T08:24:28;99694.28;;;19.42;83.71
48424;BME280;34232;42.502;26.014;2022-11-20T08:26:56;99692.78;;;19.54;83.43
48424;BME280;34232;42.502;26.014;2022-11-20T08:29:22;99699.31;;;19.52;83.07
48424;BME280;34232;42.502;26.014;2022-11-20T08:31:47;99694.88;;;19.59;83.23
48424;BME280;34232;42.502;26.014;2022-11-20T08:34:13;99705.22;;;19.69;82.70
48424;BME280;34232;42.502;26.014;2022-11-20T08:36:38;99701.97;;;19.73;82.69
48424;BME280;34232;42.502;26.014;2022-11-20T08:39:04;99694.53;;;19.69;82.13
48424;BME280;34232;42.502;26.014;2022-11-20T08:41:30;99697.06;;;19.77;81.56
48424;BME280;34232;42.502;26.014;2022-11-20T08:44:03;99701.06;;;19.66;80.86
48424;BME280;34232;42.502;26.014;2022-11-20T08:46:41;99699.50;;;19.72;81.19
48424;BME280;34232;42.502;26.014;2022-11-20T08:49:10;99709.72;;;19.68;81.16
48424;BME280;34232;42.502;26.014;2022-11-20T08:51:37;99685.13;;;19.73;81.49
48424;BME280;34232;42.502;26.014;2022-11-20T08:54:04;99690.00;;;19.69;80.26
48424;BME280;34232;42.502;26.014;2022-11-20T08:56:30;99695.81;;;19.73;81.20
48424;BME280;34232;42.502;26.014;2022-11-20T08:58:56;99676.16;;;19.80;81.15
48424;BME280;34232;42.502;26.014;2022-11-20T09:01:22;99678.22;;;19.85;81.36
48424;BME280;34232;42.502;26.014;2022-11-20T09:03:48;99681.50;;;19.87;80.77
48424;BME280;34232;42.502;26.014;2022-11-20T09:06:14;99683.59;;;19.91;80.07
48424;BME280;34232;42.502;26.014;2022-11-20T09:08:39;99665.00;;;19.77;80.41
48424;BME280;34232;42.502;26.014;2022-11-20T09:11:05;99667.00;;;19.68;78.93
48424;BME280;34232;42.502;26.014;2022-11-20T09:13:32;99658.16;;;19.68;79.13
48424;BME280;34232;42.502;26.014;2022-11-20T09:16:02;99660.44;;;19.71;79.17
48424;BME280;34232;42.502;26.014;2022-11-20T09:18:29;99643.00;;;19.75;78.29
48424;BME280;34232;42.502;26.014;2022-11-20T09:20:58;99640.34;;;19.75;78.95
48424;BME280;34232;42.502;26.014;2022-11-20T09:23:23;99637.03;;;19.73;79.10
48424;BME280;34232;42.502;26.014;2022-11-20T09:25:49;99632.56;;;19.80;78.72
48424;BME280;34232;42.502;26.014;2022-11-20T09:28:15;99628.91;;;19.87;78.74
48424;BME280;34232;42.502;26.014;2022-11-20T09:30:41;99630.19;;;19.98;78.14
48424;BME280;34232;42.502;26.014;2022-11-20T09:33:06;99635.97;;;20.02;78.33
48424;BME280;34232;42.502;26.014;2022-11-20T09:35:33;99626.38;;;20.14;78.19
48424;BME280;34232;42.502;26.014;2022-11-20T09:38:03;99625.16;;;20.16;77.24
48424;BME280;34232;42.502;26.014;2022-11-20T09:40:29;99615.66;;;20.07;76.94
48424;BME280;34232;42.502;26.014;2022-11-20T09:51:31;99605.59;;;20.16;76.60
48424;BME280;34232;42.502;26.014;2022-11-20T09:54:13;99608.28;;;20.16;76.72
48424;BME280;34232;42.502;26.014;2022-11-20T09:56:46;99598.41;;;20.16;76.74
48424;BME280;34232;42.502;26.014;2022-11-20T09:59:29;99602.75;;;20.17;75.96
48424;BME280;34232;42.502;26.014;2022-11-20T10:01:58;99595.31;;;20.06;76.23
48424;BME280;34232;42.502;26.014;2022-11-20T10:04:25;99582.16;;;20.11;76.19
48424;BME280;34232;42.502;26.014;2022-11-20T10:07:15;99583.41;;;20.15;76.51
48424;BME280;34232;42.502;26.014;2022-11-20T10:09:52;99566.50;;;20.02;76.10
48424;BME280;34232;42.502;26.014;2022-11-20T10:15:34;99570.81;;;20.03;75.51
48424;BME280;34232;42.502;26.014;2022-11-20T10:18:08;99556.63;;;20.02;75.91
48424;BME280;34232;42.502;26.014;2022-11-20T10:29:06;99548.88;;;20.20;75.36
48424;BME280;34232;42.502;26.014;2022-11-20T10:31:40;99539.41;;;20.11;75.44
48424;BME280;34232;42.502;26.014;2022-11-20T10:37:18;99543.09;;;20.10;75.32
48424;BME280;34232;42.502;26.014;2022-11-20T10:42:59;99559.19;;;20.23;75.48
48424;BME280;34232;42.502;26.014;2022-11-20T10:48:08;99550.34;;;20.23;74.37
48424;BME280;34232;42.502;26.014;2022-11-20T10:50:43;99557.56;;;20.36;74.54
48424;BME280;34232;42.502;26.014;2022-11-20T10:55:53;99559.88;;;20.39;74.06
48424;BME280;34232;42.502;26.014;2022-11-20T10:58:37;99553.09;;;20.43;74.09
48424;BME280;34232;42.502;26.014;2022-11-20T11:01:17;99557.44;;;20.44;74.11
48424;BME280;34232;42.502;26.014;2022-11-20T11:03:42;99537.88;;;20.50;74.14
48424;BME280;34232;42.502;26.014;2022-11-20T11:06:39;99537.47;;;20.53;74.27
48424;BME280;34232;42.502;26.014;2022-11-20T11:09:15;99536.56;;;20.33;74.83
48424;BME280;34232;42.502;26.014;2022-11-20T11:11:41;99542.31;;;20.30;74.96
48424;BME280;34232;42.502;26.014;2022-11-20T11:14:12;99537.78;;;20.23;75.14
48424;BME280;34232;42.502;26.014;2022-11-20T11:16:57;99523.81;;;20.21;75.30
48424;BME280;34232;42.502;26.014;2022-11-20T11:19:23;99527.91;;;20.17;76.13
48424;BME280;34232;42.502;26.014;2022-11-20T11:21:52;99517.00;;;20.19;75.88
48424;BME280;34232;42.502;26.014;2022-11-20T11:24:36;99506.13;;;20.20;75.24
48424;BME280;34232;42.502;26.014;2022-11-20T11:27:04;99513.13;;;20.21;75.31
48424;BME280;34232;42.502;26.014;2022-11-20T11:29:35;99505.25;;;20.13;75.18
48424;BME280;34232;42.502;26.014;2022-11-20T11:32:11;99511.03;;;20.17;76.03
48424;BME280;34232;42.502;26.014;2022-11-20T11:34:37;99508.97;;;20.06;75.84
48424;BME280;34232;42.502;26.014;2022-11-20T11:37:04;99504.88;;;20.10;76.55
48424;BME280;34232;42.502;26.014;2022-11-20T11:39:31;99503.63;;;20.12;76.04
48424;BME280;34232;42.502;26.014;2022-11-20T11:41:58;99501.16;;;20.17;75.63
48424;BME280;34232;42.502;26.014;2022-11-20T11:44:30;99478.56;;;20.20;75.37
48424;BME280;34232;42.502;26.014;2022-11-20T11:47:29;99483.09;;;20.33;74.61
48424;BME280;34232;42.502;26.014;2022-11-20T11:55:30;99460.94;;;20.65;73.64
48424;BME280;34232;42.502;26.014;2022-11-20T11:58:09;99464.84;;;20.82;73.54
48424;BME280;34232;42.502;26.014;2022-11-20T12:00:39;99459.72;;;20.87;72.68
48424;BME280;34232;42.502;26.014;2022-11-20T12:03:19;99459.69;;;20.81;69.60
48424;BME280;34232;42.502;26.014;2022-11-20T12:05:49;99453.13;;;20.70;69.21
48424;BME280;34232;42.502;26.014;2022-11-20T12:14:18;99440.56;;;20.64;68.63
48424;BME280;34232;42.502;26.014;2022-11-20T12:16:49;99424.94;;;20.48;68.90
48424;BME280;34232;42.502;26.014;2022-11-20T12:19:15;99443.88;;;20.53;69.40
48424;BME280;34232;42.502;26.014;2022-11-20T12:24:37;99431.75;;;20.44;70.29
48424;BME280;34232;42.502;26.014;2022-11-20T12:43:18;99437.88;;;20.24;70.57
48424;BME280;34232;42.502;26.014;2022-11-20T12:46:42;99437.47;;;20.27;70.75
48424;BME280;34232;42.502;26.014;2022-11-20T12:49:42;99438.25;;;20.21;70.52
48424;BME280;34232;42.502;26.014;2022-11-20T12:52:17;99443.00;;;20.19;70.21
48424;BME280;34232;42.502;26.014;2022-11-20T12:55:28;99438.50;;;20.26;69.97
48424;BME280;34232;42.502;26.014;2022-11-20T13:06:53;99417.72;;;20.29;68.95
48424;BME280;34232;42.502;26.014;2022-11-20T13:09:20;99407.84;;;20.36;68.96
48424;BME280;34232;42.502;26.014;2022-11-20T13:14:35;99418.53;;;20.36;69.00
48424;BME280;34232;42.502;26.014;2022-11-20T13:17:11;99414.47;;;20.40;68.16
48424;BME280;34232;42.502;26.014;2022-11-20T13:19:39;99406.03;;;20.43;68.61
48424;BME280;34232;42.502;26.014;2022-11-20T13:22:05;99406.03;;;20.36;68.05
48424;BME280;34232;42.502;26.014;2022-11-20T13:24:31;99407.69;;;20.44;68.49
48424;BME280;34232;42.502;26.014;2022-11-20T13:29:31;99410.53;;;20.49;67.60
48424;BME280;34232;42.502;26.014;2022-11-20T13:32:14;99407.47;;;20.52;67.51
48424;BME280;34232;42.502;26.014;2022-11-20T13:34:55;99400.06;;;20.54;67.03
48424;BME280;34232;42.502;26.014;2022-11-20T13:37:28;99408.69;;;20.56;66.84
48424;BME280;34232;42.502;26.014;2022-11-20T13:42:39;99406.66;;;20.58;66.18
48424;BME280;34232;42.502;26.014;2022-11-20T13:45:11;99405.41;;;20.54;65.16
48424;BME280;34232;42.502;26.014;2022-11-20T13:47:50;99396.97;;;20.57;65.34
48424;BME280;34232;42.502;26.014;2022-11-20T13:50:16;99400.88;;;20.48;66.04
48424;BME280;34232;42.502;26.014;2022-11-20T13:56:04;99394.31;;;20.44;66.49
48424;BME280;34232;42.502;26.014;2022-11-20T14:01:28;99386.44;;;20.36;66.42
48424;BME280;34232;42.502;26.014;2022-11-20T14:03:55;99395.75;;;20.40;66.38
48424;BME280;34232;42.502;26.014;2022-11-20T14:06:27;99387.72;;;20.40;66.13
48424;BME280;34232;42.502;26.014;2022-11-20T14:08:54;99389.78;;;20.38;66.23
48424;BME280;34232;42.502;26.014;2022-11-20T14:11:30;99385.66;;;20.29;66.25
48424;BME280;34232;42.502;26.014;2022-11-20T14:13:59;99373.72;;;20.24;66.71
48424;BME280;34232;42.502;26.014;2022-11-20T14:16:27;99381.31;;;20.27;66.90
48424;BME280;34232;42.502;26.014;2022-11-20T14:18:53;99388.09;;;20.23;67.19
48424;BME280;34232;42.502;26.014;2022-11-20T14:21:24;99384.38;;;20.18;67.56
48424;BME280;34232;42.502;26.014;2022-11-20T14:23:54;99389.31;;;20.14;67.60
48424;BME280;34232;42.502;26.014;2022-11-20T14:26:27;99388.91;;;20.11;67.68